Main page


Airports :

Norwich, England

Norwich Airport

latitude: 52-38N, longitude: 001-18E, elevation: 14 m

Current weather observation

The report was made 16 minutes ago, at 06:50 UTC
Wind 4 kt from the West
Temperature 0°C
Humidity 100%
Pressure 1031 hPa
Visibility: 7000 m

METAR: EGSH 210650Z 27004KT 7000 NSC 00/00 Q1031 NOSIG

Time: 07:06 (07:06 UTC)


The report was made 2 hours and 13 minutes ago, at 04:53 UTC
Forecast valid from 21 at 06 UTC to 21 at 15 UTC
Wind 5 kt from the North/Northwest
Visibility 10 km or more
Scattered clouds at a height of 3500 ft
Probability 40%
from 21 at 06 UTC to 21 at 09 UTC
Visibility: 1400 m
mist, Shallow fog

TAF: EGSH 210453Z 2106/2115 34005KT 9999 SCT035 PROB40 2106/2109 1400 BR MIFG

Weather observations and forecasts of more than 4000 airports (METAR and TAF reports).

The available stations are represented by yellow and red dots on the map.

Hover mouse over dot to see the name of the station.

Then click to see weather observations and forecasts.

To change the map : click on the green buttons with a black cross to zoom in, on the green button with a dash to zoom out, or on the green arrows for adjacent maps.